sensor_id;sensor_type;location;lat;lon;timestamp;P1;durP1;ratioP1;P2;durP2;ratioP2
6485;SDS011;3276;48.490;9.222;2023-07-31T00:00:24;2.97;;;1.70;;
6485;SDS011;3276;48.490;9.222;2023-07-31T00:02:50;3.43;;;1.70;;
6485;SDS011;3276;48.490;9.222;2023-07-31T00:05:17;5.90;;;2.10;;
6485;SDS011;3276;48.490;9.222;2023-07-31T00:07:42;2.37;;;1.47;;
6485;SDS011;3276;48.490;9.222;2023-07-31T00:10:08;3.37;;;2.10;;
6485;SDS011;3276;48.490;9.222;2023-07-31T00:12:34;5.67;;;2.20;;
6485;SDS011;3276;48.490;9.222;2023-07-31T00:14:59;3.97;;;1.60;;
6485;SDS011;3276;48.490;9.222;2023-07-31T00:17:25;5.73;;;2.17;;
6485;SDS011;3276;48.490;9.222;2023-07-31T00:19:50;4.37;;;1.50;;
6485;SDS011;3276;48.490;9.222;2023-07-31T00:22:16;3.73;;;1.50;;
6485;SDS011;3276;48.490;9.222;2023-07-31T00:24:42;2.80;;;1.80;;
6485;SDS011;3276;48.490;9.222;2023-07-31T00:27:07;4.40;;;1.63;;
6485;SDS011;3276;48.490;9.222;2023-07-31T00:29:33;3.70;;;1.80;;
6485;SDS011;3276;48.490;9.222;2023-07-31T00:31:58;6.33;;;2.10;;
6485;SDS011;3276;48.490;9.222;2023-07-31T00:34:24;6.60;;;1.90;;
6485;SDS011;3276;48.490;9.222;2023-07-31T00:36:50;2.90;;;1.70;;
6485;SDS011;3276;48.490;9.222;2023-07-31T00:39:15;3.23;;;1.90;;
6485;SDS011;3276;48.490;9.222;2023-07-31T00:41:41;5.53;;;2.60;;
6485;SDS011;3276;48.490;9.222;2023-07-31T00:44:07;2.83;;;1.80;;
6485;SDS011;3276;48.490;9.222;2023-07-31T00:46:32;3.70;;;2.23;;
6485;SDS011;3276;48.490;9.222;2023-07-31T00:48:58;2.83;;;1.83;;
6485;SDS011;3276;48.490;9.222;2023-07-31T00:51:24;7.17;;;2.57;;
6485;SDS011;3276;48.490;9.222;2023-07-31T00:53:50;7.40;;;1.73;;
6485;SDS011;3276;48.490;9.222;2023-07-31T00:56:19;2.23;;;1.50;;
6485;SDS011;3276;48.490;9.222;2023-07-31T00:58:44;2.90;;;1.70;;
6485;SDS011;3276;48.490;9.222;2023-07-31T01:01:10;3.23;;;1.90;;
6485;SDS011;3276;48.490;9.222;2023-07-31T01:03:36;2.23;;;1.30;;
6485;SDS011;3276;48.490;9.222;2023-07-31T01:06:11;4.10;;;2.00;;
6485;SDS011;3276;48.490;9.222;2023-07-31T01:08:51;5.43;;;2.13;;
6485;SDS011;3276;48.490;9.222;2023-07-31T01:11:27;4.20;;;1.23;;
6485;SDS011;3276;48.490;9.222;2023-07-31T01:13:55;2.90;;;2.33;;
6485;SDS011;3276;48.490;9.222;2023-07-31T01:16:21;6.70;;;2.47;;
6485;SDS011;3276;48.490;9.222;2023-07-31T01:18:46;2.97;;;1.93;;
6485;SDS011;3276;48.490;9.222;2023-07-31T01:21:23;3.77;;;2.00;;
6485;SDS011;3276;48.490;9.222;2023-07-31T01:26:30;3.90;;;1.67;;
6485;SDS011;3276;48.490;9.222;2023-07-31T01:31:50;3.17;;;1.67;;
6485;SDS011;3276;48.490;9.222;2023-07-31T01:34:20;3.00;;;1.50;;
6485;SDS011;3276;48.490;9.222;2023-07-31T01:36:47;2.60;;;1.50;;
6485;SDS011;3276;48.490;9.222;2023-07-31T01:39:15;2.43;;;1.40;;
6485;SDS011;3276;48.490;9.222;2023-07-31T01:41:41;3.10;;;1.67;;
6485;SDS011;3276;48.490;9.222;2023-07-31T01:44:06;3.80;;;1.67;;
6485;SDS011;3276;48.490;9.222;2023-07-31T01:46:32;3.57;;;1.73;;
6485;SDS011;3276;48.490;9.222;2023-07-31T01:48:57;3.97;;;2.00;;
6485;SDS011;3276;48.490;9.222;2023-07-31T01:51:23;3.83;;;1.97;;
6485;SDS011;3276;48.490;9.222;2023-07-31T01:53:49;4.87;;;1.53;;
6485;SDS011;3276;48.490;9.222;2023-07-31T01:56:14;3.27;;;1.83;;
6485;SDS011;3276;48.490;9.222;2023-07-31T01:58:40;3.47;;;1.63;;
6485;SDS011;3276;48.490;9.222;2023-07-31T02:01:05;2.80;;;1.87;;
6485;SDS011;3276;48.490;9.222;2023-07-31T02:03:31;3.30;;;2.20;;
6485;SDS011;3276;48.490;9.222;2023-07-31T02:05:56;2.70;;;1.73;;
6485;SDS011;3276;48.490;9.222;2023-07-31T02:08:22;3.40;;;2.30;;
6485;SDS011;3276;48.490;9.222;2023-07-31T02:10:48;3.17;;;1.83;;
6485;SDS011;3276;48.490;9.222;2023-07-31T02:13:13;2.33;;;1.47;;
6485;SDS011;3276;48.490;9.222;2023-07-31T02:15:39;3.60;;;1.47;;
6485;SDS011;3276;48.490;9.222;2023-07-31T02:18:04;5.17;;;2.27;;
6485;SDS011;3276;48.490;9.222;2023-07-31T02:20:33;4.00;;;1.70;;
6485;SDS011;3276;48.490;9.222;2023-07-31T02:22:59;2.60;;;1.83;;
6485;SDS011;3276;48.490;9.222;2023-07-31T02:25:24;2.27;;;1.70;;
6485;SDS011;3276;48.490;9.222;2023-07-31T02:27:50;2.63;;;1.73;;
6485;SDS011;3276;48.490;9.222;2023-07-31T02:30:16;2.23;;;1.33;;
6485;SDS011;3276;48.490;9.222;2023-07-31T02:32:41;3.60;;;1.83;;
6485;SDS011;3276;48.490;9.222;2023-07-31T02:35:07;2.63;;;1.60;;
6485;SDS011;3276;48.490;9.222;2023-07-31T02:37:33;2.20;;;1.50;;
6485;SDS011;3276;48.490;9.222;2023-07-31T02:39:59;4.37;;;1.90;;
6485;SDS011;3276;48.490;9.222;2023-07-31T02:42:24;3.90;;;1.97;;
6485;SDS011;3276;48.490;9.222;2023-07-31T02:44:50;4.70;;;2.10;;
6485;SDS011;3276;48.490;9.222;2023-07-31T02:47:20;3.77;;;1.80;;
6485;SDS011;3276;48.490;9.222;2023-07-31T02:49:46;4.77;;;2.33;;
6485;SDS011;3276;48.490;9.222;2023-07-31T02:52:12;2.27;;;1.70;;
6485;SDS011;3276;48.490;9.222;2023-07-31T02:54:38;3.03;;;1.70;;
6485;SDS011;3276;48.490;9.222;2023-07-31T02:57:03;3.53;;;1.90;;
6485;SDS011;3276;48.490;9.222;2023-07-31T02:59:29;3.87;;;1.73;;
6485;SDS011;3276;48.490;9.222;2023-07-31T03:01:55;4.57;;;1.93;;
6485;SDS011;3276;48.490;9.222;2023-07-31T03:04:20;3.10;;;1.87;;
6485;SDS011;3276;48.490;9.222;2023-07-31T03:06:46;5.40;;;1.93;;
6485;SDS011;3276;48.490;9.222;2023-07-31T03:09:11;3.50;;;1.40;;
6485;SDS011;3276;48.490;9.222;2023-07-31T03:11:37;2.80;;;1.93;;
6485;SDS011;3276;48.490;9.222;2023-07-31T03:14:02;3.33;;;1.97;;
6485;SDS011;3276;48.490;9.222;2023-07-31T03:16:28;2.50;;;1.43;;
6485;SDS011;3276;48.490;9.222;2023-07-31T03:18:54;3.23;;;1.77;;
6485;SDS011;3276;48.490;9.222;2023-07-31T03:21:19;4.70;;;2.57;;
6485;SDS011;3276;48.490;9.222;2023-07-31T03:23:45;4.30;;;1.80;;
6485;SDS011;3276;48.490;9.222;2023-07-31T03:26:10;3.37;;;1.80;;
6485;SDS011;3276;48.490;9.222;2023-07-31T03:28:36;4.30;;;2.33;;
6485;SDS011;3276;48.490;9.222;2023-07-31T03:31:02;5.60;;;2.30;;
6485;SDS011;3276;48.490;9.222;2023-07-31T03:33:27;6.23;;;2.07;;
6485;SDS011;3276;48.490;9.222;2023-07-31T03:35:53;3.30;;;1.73;;
6485;SDS011;3276;48.490;9.222;2023-07-31T03:38:19;3.47;;;2.17;;
6485;SDS011;3276;48.490;9.222;2023-07-31T03:40:44;3.10;;;2.30;;
6485;SDS011;3276;48.490;9.222;2023-07-31T03:43:10;3.57;;;1.93;;
6485;SDS011;3276;48.490;9.222;2023-07-31T03:45:36;3.70;;;1.80;;
6485;SDS011;3276;48.490;9.222;2023-07-31T03:48:02;6.73;;;2.20;;
6485;SDS011;3276;48.490;9.222;2023-07-31T03:50:28;3.17;;;2.10;;
6485;SDS011;3276;48.490;9.222;2023-07-31T03:52:54;3.53;;;2.13;;
6485;SDS011;3276;48.490;9.222;2023-07-31T03:55:19;2.50;;;1.57;;
6485;SDS011;3276;48.490;9.222;2023-07-31T03:57:46;2.93;;;2.23;;
6485;SDS011;3276;48.490;9.222;2023-07-31T04:00:12;4.20;;;2.03;;
6485;SDS011;3276;48.490;9.222;2023-07-31T04:02:38;4.83;;;2.20;;
6485;SDS011;3276;48.490;9.222;2023-07-31T04:05:03;4.40;;;2.20;;
6485;SDS011;3276;48.490;9.222;2023-07-31T04:07:29;3.03;;;1.70;;
6485;SDS011;3276;48.490;9.222;2023-07-31T04:09:55;4.50;;;1.67;;
6485;SDS011;3276;48.490;9.222;2023-07-31T04:12:22;4.50;;;2.37;;
6485;SDS011;3276;48.490;9.222;2023-07-31T04:14:47;2.57;;;1.60;;
6485;SDS011;3276;48.490;9.222;2023-07-31T04:17:13;3.33;;;1.73;;
6485;SDS011;3276;48.490;9.222;2023-07-31T04:19:39;5.53;;;2.50;;
6485;SDS011;3276;48.490;9.222;2023-07-31T04:22:04;6.40;;;3.70;;
6485;SDS011;3276;48.490;9.222;2023-07-31T04:24:30;3.43;;;2.20;;
6485;SDS011;3276;48.490;9.222;2023-07-31T04:26:55;5.70;;;2.07;;
6485;SDS011;3276;48.490;9.222;2023-07-31T04:29:21;3.43;;;2.53;;
6485;SDS011;3276;48.490;9.222;2023-07-31T04:31:47;4.57;;;2.33;;
6485;SDS011;3276;48.490;9.222;2023-07-31T04:34:13;6.33;;;2.40;;
6485;SDS011;3276;48.490;9.222;2023-07-31T04:36:38;5.47;;;2.03;;
6485;SDS011;3276;48.490;9.222;2023-07-31T04:39:04;5.57;;;2.53;;
6485;SDS011;3276;48.490;9.222;2023-07-31T04:41:30;6.83;;;2.63;;
6485;SDS011;3276;48.490;9.222;2023-07-31T04:43:55;7.03;;;2.20;;
6485;SDS011;3276;48.490;9.222;2023-07-31T04:46:21;2.80;;;2.20;;
6485;SDS011;3276;48.490;9.222;2023-07-31T04:48:46;6.50;;;2.67;;
6485;SDS011;3276;48.490;9.222;2023-07-31T04:51:12;6.37;;;2.53;;
6485;SDS011;3276;48.490;9.222;2023-07-31T04:53:38;4.03;;;2.47;;
6485;SDS011;3276;48.490;9.222;2023-07-31T04:56:03;8.10;;;2.77;;
6485;SDS011;3276;48.490;9.222;2023-07-31T04:58:29;3.33;;;2.13;;
6485;SDS011;3276;48.490;9.222;2023-07-31T05:00:54;5.23;;;2.50;;
6485;SDS011;3276;48.490;9.222;2023-07-31T05:03:20;3.40;;;2.33;;
6485;SDS011;3276;48.490;9.222;2023-07-31T05:05:46;3.60;;;1.80;;
6485;SDS011;3276;48.490;9.222;2023-07-31T05:08:11;4.10;;;2.30;;
6485;SDS011;3276;48.490;9.222;2023-07-31T05:10:37;3.73;;;1.63;;
6485;SDS011;3276;48.490;9.222;2023-07-31T05:13:02;4.30;;;2.67;;
6485;SDS011;3276;48.490;9.222;2023-07-31T05:15:29;4.83;;;2.43;;
6485;SDS011;3276;48.490;9.222;2023-07-31T05:17:54;4.70;;;2.63;;
6485;SDS011;3276;48.490;9.222;2023-07-31T05:20:20;4.53;;;2.73;;
6485;SDS011;3276;48.490;9.222;2023-07-31T05:22:46;3.20;;;2.10;;
6485;SDS011;3276;48.490;9.222;2023-07-31T05:25:12;6.40;;;2.10;;
6485;SDS011;3276;48.490;9.222;2023-07-31T05:27:37;4.63;;;2.60;;
6485;SDS011;3276;48.490;9.222;2023-07-31T05:30:03;3.30;;;2.67;;
6485;SDS011;3276;48.490;9.222;2023-07-31T05:32:29;7.70;;;2.80;;
6485;SDS011;3276;48.490;9.222;2023-07-31T05:34:55;4.73;;;2.63;;
6485;SDS011;3276;48.490;9.222;2023-07-31T05:37:21;4.47;;;1.70;;
6485;SDS011;3276;48.490;9.222;2023-07-31T05:39:47;10.23;;;2.90;;
6485;SDS011;3276;48.490;9.222;2023-07-31T05:42:12;4.77;;;2.77;;
6485;SDS011;3276;48.490;9.222;2023-07-31T05:44:38;9.50;;;2.53;;
6485;SDS011;3276;48.490;9.222;2023-07-31T05:47:04;4.57;;;2.43;;
6485;SDS011;3276;48.490;9.222;2023-07-31T05:49:30;3.90;;;2.00;;
6485;SDS011;3276;48.490;9.222;2023-07-31T05:51:55;3.60;;;2.60;;
6485;SDS011;3276;48.490;9.222;2023-07-31T05:54:21;8.50;;;2.57;;
6485;SDS011;3276;48.490;9.222;2023-07-31T05:56:46;5.33;;;2.80;;
6485;SDS011;3276;48.490;9.222;2023-07-31T05:59:12;8.43;;;2.63;;
6485;SDS011;3276;48.490;9.222;2023-07-31T06:01:38;4.30;;;2.60;;
6485;SDS011;3276;48.490;9.222;2023-07-31T06:04:04;2.90;;;2.30;;
6485;SDS011;3276;48.490;9.222;2023-07-31T06:06:30;4.90;;;2.83;;
6485;SDS011;3276;48.490;9.222;2023-07-31T06:08:55;7.43;;;2.47;;
6485;SDS011;3276;48.490;9.222;2023-07-31T06:11:21;5.53;;;2.90;;
6485;SDS011;3276;48.490;9.222;2023-07-31T06:13:47;3.63;;;2.30;;
6485;SDS011;3276;48.490;9.222;2023-07-31T06:16:14;6.57;;;2.40;;
6485;SDS011;3276;48.490;9.222;2023-07-31T06:18:40;4.00;;;2.77;;
6485;SDS011;3276;48.490;9.222;2023-07-31T06:21:06;4.67;;;2.30;;
6485;SDS011;3276;48.490;9.222;2023-07-31T06:23:31;3.47;;;2.43;;
6485;SDS011;3276;48.490;9.222;2023-07-31T06:25:57;3.70;;;2.63;;
6485;SDS011;3276;48.490;9.222;2023-07-31T06:28:29;5.90;;;3.20;;
6485;SDS011;3276;48.490;9.222;2023-07-31T06:30:56;5.00;;;3.27;;
6485;SDS011;3276;48.490;9.222;2023-07-31T06:33:22;6.63;;;2.40;;
6485;SDS011;3276;48.490;9.222;2023-07-31T06:35:48;3.67;;;1.90;;
6485;SDS011;3276;48.490;9.222;2023-07-31T06:38:14;2.97;;;2.00;;
6485;SDS011;3276;48.490;9.222;2023-07-31T06:40:39;3.30;;;2.30;;
6485;SDS011;3276;48.490;9.222;2023-07-31T06:43:05;3.80;;;2.50;;
6485;SDS011;3276;48.490;9.222;2023-07-31T06:45:34;4.80;;;2.70;;
6485;SDS011;3276;48.490;9.222;2023-07-31T06:48:01;4.67;;;2.63;;
6485;SDS011;3276;48.490;9.222;2023-07-31T06:50:27;6.93;;;4.60;;
6485;SDS011;3276;48.490;9.222;2023-07-31T06:52:53;4.13;;;3.77;;
6485;SDS011;3276;48.490;9.222;2023-07-31T06:55:20;4.07;;;3.53;;
6485;SDS011;3276;48.490;9.222;2023-07-31T06:57:47;4.47;;;4.13;;
6485;SDS011;3276;48.490;9.222;2023-07-31T07:00:13;4.37;;;4.07;;
6485;SDS011;3276;48.490;9.222;2023-07-31T07:02:39;5.13;;;3.93;;
6485;SDS011;3276;48.490;9.222;2023-07-31T07:05:06;4.40;;;4.10;;
6485;SDS011;3276;48.490;9.222;2023-07-31T07:07:32;4.57;;;4.10;;
6485;SDS011;3276;48.490;9.222;2023-07-31T07:09:57;5.60;;;5.10;;
6485;SDS011;3276;48.490;9.222;2023-07-31T07:12:27;4.60;;;4.20;;
6485;SDS011;3276;48.490;9.222;2023-07-31T07:14:54;6.10;;;4.43;;
6485;SDS011;3276;48.490;9.222;2023-07-31T07:17:20;4.70;;;3.40;;
6485;SDS011;3276;48.490;9.222;2023-07-31T07:19:47;3.67;;;3.37;;
6485;SDS011;3276;48.490;9.222;2023-07-31T07:22:13;4.47;;;4.07;;
6485;SDS011;3276;48.490;9.222;2023-07-31T07:24:39;7.40;;;4.37;;
6485;SDS011;3276;48.490;9.222;2023-07-31T07:27:04;5.63;;;4.80;;
6485;SDS011;3276;48.490;9.222;2023-07-31T07:29:30;5.10;;;3.80;;
6485;SDS011;3276;48.490;9.222;2023-07-31T07:31:56;4.40;;;4.03;;
6485;SDS011;3276;48.490;9.222;2023-07-31T07:34:28;3.60;;;3.30;;
6485;SDS011;3276;48.490;9.222;2023-07-31T07:36:54;4.30;;;3.90;;
6485;SDS011;3276;48.490;9.222;2023-07-31T07:39:20;4.10;;;3.70;;
6485;SDS011;3276;48.490;9.222;2023-07-31T07:41:46;4.80;;;4.30;;
6485;SDS011;3276;48.490;9.222;2023-07-31T07:44:12;3.90;;;3.60;;
6485;SDS011;3276;48.490;9.222;2023-07-31T07:46:38;7.83;;;5.10;;
6485;SDS011;3276;48.490;9.222;2023-07-31T07:49:04;4.37;;;3.67;;
6485;SDS011;3276;48.490;9.222;2023-07-31T07:51:29;4.20;;;3.80;;
6485;SDS011;3276;48.490;9.222;2023-07-31T07:53:57;3.80;;;3.50;;
6485;SDS011;3276;48.490;9.222;2023-07-31T07:56:23;5.23;;;3.90;;
6485;SDS011;3276;48.490;9.222;2023-07-31T07:58:50;5.07;;;4.57;;
6485;SDS011;3276;48.490;9.222;2023-07-31T08:01:16;5.40;;;4.37;;
6485;SDS011;3276;48.490;9.222;2023-07-31T08:03:45;7.07;;;6.37;;
6485;SDS011;3276;48.490;9.222;2023-07-31T08:06:11;12.83;;;7.73;;
6485;SDS011;3276;48.490;9.222;2023-07-31T08:08:37;4.70;;;4.23;;
6485;SDS011;3276;48.490;9.222;2023-07-31T08:11:03;4.90;;;4.50;;
6485;SDS011;3276;48.490;9.222;2023-07-31T08:13:29;5.13;;;4.57;;
6485;SDS011;3276;48.490;9.222;2023-07-31T08:15:54;5.03;;;4.33;;
6485;SDS011;3276;48.490;9.222;2023-07-31T08:18:20;3.83;;;3.53;;
6485;SDS011;3276;48.490;9.222;2023-07-31T08:20:46;5.07;;;4.57;;
6485;SDS011;3276;48.490;9.222;2023-07-31T08:23:11;5.90;;;4.77;;
6485;SDS011;3276;48.490;9.222;2023-07-31T08:25:37;4.97;;;4.47;;
6485;SDS011;3276;48.490;9.222;2023-07-31T08:28:04;4.50;;;4.20;;
6485;SDS011;3276;48.490;9.222;2023-07-31T08:30:30;5.00;;;4.53;;
6485;SDS011;3276;48.490;9.222;2023-07-31T08:32:56;5.90;;;4.87;;
6485;SDS011;3276;48.490;9.222;2023-07-31T08:35:22;4.40;;;4.00;;
6485;SDS011;3276;48.490;9.222;2023-07-31T08:37:49;4.83;;;4.43;;
6485;SDS011;3276;48.490;9.222;2023-07-31T08:40:14;5.20;;;4.80;;
6485;SDS011;3276;48.490;9.222;2023-07-31T08:42:46;4.07;;;3.77;;
6485;SDS011;3276;48.490;9.222;2023-07-31T08:45:16;7.20;;;4.40;;
6485;SDS011;3276;48.490;9.222;2023-07-31T08:47:50;5.40;;;4.90;;
6485;SDS011;3276;48.490;9.222;2023-07-31T08:50:17;5.10;;;4.27;;
6485;SDS011;3276;48.490;9.222;2023-07-31T08:52:45;6.60;;;5.10;;
6485;SDS011;3276;48.490;9.222;2023-07-31T08:55:11;8.03;;;4.93;;
6485;SDS011;3276;48.490;9.222;2023-07-31T08:57:38;4.07;;;3.77;;
6485;SDS011;3276;48.490;9.222;2023-07-31T09:00:04;4.07;;;3.77;;
6485;SDS011;3276;48.490;9.222;2023-07-31T09:02:36;4.93;;;4.20;;
6485;SDS011;3276;48.490;9.222;2023-07-31T09:05:06;5.53;;;4.80;;
6485;SDS011;3276;48.490;9.222;2023-07-31T09:07:33;4.80;;;4.27;;
6485;SDS011;3276;48.490;9.222;2023-07-31T09:10:00;4.67;;;4.27;;
6485;SDS011;3276;48.490;9.222;2023-07-31T09:12:25;7.93;;;4.60;;
6485;SDS011;3276;48.490;9.222;2023-07-31T09:14:51;4.93;;;4.50;;
6485;SDS011;3276;48.490;9.222;2023-07-31T09:17:28;5.07;;;4.67;;
6485;SDS011;3276;48.490;9.222;2023-07-31T09:22:44;5.50;;;4.13;;
6485;SDS011;3276;48.490;9.222;2023-07-31T09:25:17;4.37;;;3.97;;
6485;SDS011;3276;48.490;9.222;2023-07-31T09:30:21;4.10;;;3.80;;
6485;SDS011;3276;48.490;9.222;2023-07-31T09:32:48;4.63;;;4.23;;
6485;SDS011;3276;48.490;9.222;2023-07-31T09:35:21;6.03;;;4.37;;
6485;SDS011;3276;48.490;9.222;2023-07-31T09:37:52;5.97;;;5.37;;
6485;SDS011;3276;48.490;9.222;2023-07-31T09:40:52;6.60;;;6.00;;
6485;SDS011;3276;48.490;9.222;2023-07-31T09:43:13;5.73;;;4.10;;
6485;SDS011;3276;48.490;9.222;2023-07-31T09:45:43;6.57;;;5.57;;
6485;SDS011;3276;48.490;9.222;2023-07-31T09:48:16;7.33;;;4.23;;
6485;SDS011;3276;48.490;9.222;2023-07-31T09:50:43;9.33;;;5.17;;
6485;SDS011;3276;48.490;9.222;2023-07-31T09:53:10;14.73;;;7.00;;
6485;SDS011;3276;48.490;9.222;2023-07-31T09:55:37;5.70;;;4.70;;
6485;SDS011;3276;48.490;9.222;2023-07-31T09:58:06;6.43;;;3.73;;
6485;SDS011;3276;48.490;9.222;2023-07-31T10:00:33;6.30;;;4.00;;
6485;SDS011;3276;48.490;9.222;2023-07-31T10:03:00;4.20;;;3.90;;
6485;SDS011;3276;48.490;9.222;2023-07-31T10:05:34;5.33;;;4.80;;
6485;SDS011;3276;48.490;9.222;2023-07-31T10:08:01;4.90;;;4.50;;
6485;SDS011;3276;48.490;9.222;2023-07-31T10:10:28;4.43;;;4.03;;
6485;SDS011;3276;48.490;9.222;2023-07-31T10:12:54;4.73;;;4.33;;
6485;SDS011;3276;48.490;9.222;2023-07-31T10:15:21;5.70;;;3.97;;
6485;SDS011;3276;48.490;9.222;2023-07-31T10:17:47;3.67;;;3.37;;
6485;SDS011;3276;48.490;9.222;2023-07-31T10:20:14;6.80;;;4.10;;
6485;SDS011;3276;48.490;9.222;2023-07-31T10:22:44;5.10;;;4.60;;
6485;SDS011;3276;48.490;9.222;2023-07-31T10:25:13;4.10;;;3.70;;
6485;SDS011;3276;48.490;9.222;2023-07-31T10:27:40;4.43;;;4.03;;
6485;SDS011;3276;48.490;9.222;2023-07-31T10:30:06;4.20;;;3.80;;
6485;SDS011;3276;48.490;9.222;2023-07-31T10:32:34;3.50;;;3.20;;
6485;SDS011;3276;48.490;9.222;2023-07-31T10:35:01;5.90;;;3.77;;
6485;SDS011;3276;48.490;9.222;2023-07-31T10:37:29;4.80;;;4.30;;
6485;SDS011;3276;48.490;9.222;2023-07-31T10:40:44;6.30;;;4.83;;
6485;SDS011;3276;48.490;9.222;2023-07-31T10:42:52;4.30;;;3.90;;
6485;SDS011;3276;48.490;9.222;2023-07-31T10:48:23;4.20;;;3.80;;
6485;SDS011;3276;48.490;9.222;2023-07-31T10:50:50;7.17;;;4.53;;
6485;SDS011;3276;48.490;9.222;2023-07-31T10:53:25;7.00;;;4.00;;
6485;SDS011;3276;48.490;9.222;2023-07-31T10:55:59;4.97;;;4.40;;
6485;SDS011;3276;48.490;9.222;2023-07-31T10:58:25;4.30;;;3.90;;
6485;SDS011;3276;48.490;9.222;2023-07-31T11:00:56;5.03;;;3.43;;
6485;SDS011;3276;48.490;9.222;2023-07-31T11:03:40;5.10;;;4.60;;
6485;SDS011;3276;48.490;9.222;2023-07-31T11:06:07;4.20;;;3.80;;
6485;SDS011;3276;48.490;9.222;2023-07-31T11:08:33;4.67;;;4.37;;
6485;SDS011;3276;48.490;9.222;2023-07-31T11:13:26;5.00;;;4.33;;
6485;SDS011;3276;48.490;9.222;2023-07-31T11:15:52;12.43;;;4.23;;
6485;SDS011;3276;48.490;9.222;2023-07-31T11:18:17;5.43;;;4.13;;
6485;SDS011;3276;48.490;9.222;2023-07-31T11:20:43;4.03;;;3.73;;
6485;SDS011;3276;48.490;9.222;2023-07-31T11:23:09;4.97;;;4.50;;
6485;SDS011;3276;48.490;9.222;2023-07-31T11:25:36;4.60;;;4.20;;
6485;SDS011;3276;48.490;9.222;2023-07-31T11:28:05;4.73;;;4.33;;
6485;SDS011;3276;48.490;9.222;2023-07-31T11:30:33;6.00;;;4.77;;
6485;SDS011;3276;48.490;9.222;2023-07-31T11:33:03;4.47;;;4.10;;
6485;SDS011;3276;48.490;9.222;2023-07-31T11:35:33;4.87;;;4.47;;
6485;SDS011;3276;48.490;9.222;2023-07-31T11:38:01;4.97;;;4.60;;
6485;SDS011;3276;48.490;9.222;2023-07-31T11:40:27;7.67;;;5.67;;
6485;SDS011;3276;48.490;9.222;2023-07-31T11:42:57;4.60;;;4.30;;
6485;SDS011;3276;48.490;9.222;2023-07-31T11:45:26;6.97;;;5.03;;
6485;SDS011;3276;48.490;9.222;2023-07-31T11:47:55;4.53;;;4.13;;
6485;SDS011;3276;48.490;9.222;2023-07-31T11:50:21;4.63;;;4.23;;
6485;SDS011;3276;48.490;9.222;2023-07-31T11:52:50;4.27;;;3.93;;
6485;SDS011;3276;48.490;9.222;2023-07-31T11:55:22;7.47;;;4.57;;
6485;SDS011;3276;48.490;9.222;2023-07-31T11:57:48;5.33;;;4.10;;
6485;SDS011;3276;48.490;9.222;2023-07-31T12:00:15;4.40;;;4.10;;
6485;SDS011;3276;48.490;9.222;2023-07-31T12:02:42;5.70;;;4.40;;
6485;SDS011;3276;48.490;9.222;2023-07-31T12:05:11;4.80;;;4.40;;
6485;SDS011;3276;48.490;9.222;2023-07-31T12:07:47;4.93;;;4.53;;
6485;SDS011;3276;48.490;9.222;2023-07-31T12:13:00;3.73;;;3.47;;
6485;SDS011;3276;48.490;9.222;2023-07-31T12:18:00;5.03;;;4.53;;
6485;SDS011;3276;48.490;9.222;2023-07-31T12:20:30;5.70;;;4.87;;
6485;SDS011;3276;48.490;9.222;2023-07-31T12:22:56;4.83;;;4.40;;
6485;SDS011;3276;48.490;9.222;2023-07-31T12:25:23;9.00;;;4.13;;
6485;SDS011;3276;48.490;9.222;2023-07-31T12:27:53;3.80;;;3.50;;
6485;SDS011;3276;48.490;9.222;2023-07-31T12:30:28;4.60;;;4.20;;
6485;SDS011;3276;48.490;9.222;2023-07-31T12:33:02;5.10;;;4.10;;
6485;SDS011;3276;48.490;9.222;2023-07-31T12:35:36;4.10;;;3.80;;
6485;SDS011;3276;48.490;9.222;2023-07-31T12:38:02;6.50;;;4.53;;
6485;SDS011;3276;48.490;9.222;2023-07-31T12:40:28;4.63;;;4.23;;
6485;SDS011;3276;48.490;9.222;2023-07-31T12:42:54;4.13;;;3.80;;
6485;SDS011;3276;48.490;9.222;2023-07-31T12:45:19;5.10;;;4.70;;
6485;SDS011;3276;48.490;9.222;2023-07-31T12:47:46;4.37;;;3.97;;
6485;SDS011;3276;48.490;9.222;2023-07-31T12:50:12;5.03;;;4.57;;
6485;SDS011;3276;48.490;9.222;2023-07-31T12:52:37;5.60;;;4.40;;
6485;SDS011;3276;48.490;9.222;2023-07-31T12:55:03;6.40;;;4.27;;
6485;SDS011;3276;48.490;9.222;2023-07-31T12:57:29;4.20;;;3.90;;
6485;SDS011;3276;48.490;9.222;2023-07-31T12:59:55;11.33;;;6.47;;
6485;SDS011;3276;48.490;9.222;2023-07-31T13:02:21;7.13;;;4.00;;
6485;SDS011;3276;48.490;9.222;2023-07-31T13:04:46;22.33;;;8.27;;
6485;SDS011;3276;48.490;9.222;2023-07-31T13:07:12;29.63;;;8.47;;
6485;SDS011;3276;48.490;9.222;2023-07-31T13:09:38;6.63;;;4.53;;
6485;SDS011;3276;48.490;9.222;2023-07-31T13:12:03;6.10;;;4.93;;
6485;SDS011;3276;48.490;9.222;2023-07-31T13:14:29;4.97;;;4.03;;
6485;SDS011;3276;48.490;9.222;2023-07-31T13:16:55;4.33;;;4.03;;
6485;SDS011;3276;48.490;9.222;2023-07-31T13:19:20;12.27;;;6.43;;
6485;SDS011;3276;48.490;9.222;2023-07-31T13:21:46;5.23;;;4.73;;
6485;SDS011;3276;48.490;9.222;2023-07-31T13:24:11;5.83;;;3.70;;
6485;SDS011;3276;48.490;9.222;2023-07-31T13:26:37;5.53;;;4.73;;
6485;SDS011;3276;48.490;9.222;2023-07-31T13:29:02;5.20;;;4.70;;
6485;SDS011;3276;48.490;9.222;2023-07-31T13:31:28;4.43;;;4.03;;
6485;SDS011;3276;48.490;9.222;2023-07-31T13:33:54;3.33;;;3.03;;
6485;SDS011;3276;48.490;9.222;2023-07-31T13:36:19;4.80;;;4.27;;
6485;SDS011;3276;48.490;9.222;2023-07-31T13:38:54;6.77;;;4.97;;
6485;SDS011;3276;48.490;9.222;2023-07-31T13:41:29;4.70;;;4.30;;
6485;SDS011;3276;48.490;9.222;2023-07-31T13:43:54;5.17;;;4.77;;
6485;SDS011;3276;48.490;9.222;2023-07-31T13:46:20;4.20;;;3.80;;
6485;SDS011;3276;48.490;9.222;2023-07-31T13:48:45;4.03;;;3.73;;
6485;SDS011;3276;48.490;9.222;2023-07-31T13:51:11;4.83;;;4.10;;
6485;SDS011;3276;48.490;9.222;2023-07-31T13:53:36;5.30;;;4.80;;
6485;SDS011;3276;48.490;9.222;2023-07-31T13:56:02;5.33;;;3.90;;
6485;SDS011;3276;48.490;9.222;2023-07-31T13:58:28;4.40;;;4.10;;
6485;SDS011;3276;48.490;9.222;2023-07-31T14:00:56;4.70;;;4.20;;
6485;SDS011;3276;48.490;9.222;2023-07-31T14:03:21;4.60;;;4.20;;
6485;SDS011;3276;48.490;9.222;2023-07-31T14:05:47;4.07;;;3.77;;
6485;SDS011;3276;48.490;9.222;2023-07-31T14:08:12;6.70;;;4.20;;
6485;SDS011;3276;48.490;9.222;2023-07-31T14:10:38;5.07;;;4.17;;
6485;SDS011;3276;48.490;9.222;2023-07-31T14:13:03;3.93;;;3.63;;
6485;SDS011;3276;48.490;9.222;2023-07-31T14:15:29;4.23;;;3.80;;
6485;SDS011;3276;48.490;9.222;2023-07-31T14:17:54;7.93;;;4.53;;
6485;SDS011;3276;48.490;9.222;2023-07-31T14:20:20;4.57;;;4.17;;
6485;SDS011;3276;48.490;9.222;2023-07-31T14:22:45;5.30;;;4.17;;
6485;SDS011;3276;48.490;9.222;2023-07-31T14:25:11;6.10;;;3.40;;
6485;SDS011;3276;48.490;9.222;2023-07-31T14:27:36;5.40;;;3.97;;
6485;SDS011;3276;48.490;9.222;2023-07-31T14:30:02;4.90;;;4.47;;
6485;SDS011;3276;48.490;9.222;2023-07-31T14:32:28;4.43;;;3.73;;
6485;SDS011;3276;48.490;9.222;2023-07-31T14:34:54;4.70;;;4.27;;
6485;SDS011;3276;48.490;9.222;2023-07-31T14:37:20;5.20;;;3.77;;
6485;SDS011;3276;48.490;9.222;2023-07-31T14:39:45;3.80;;;3.50;;
6485;SDS011;3276;48.490;9.222;2023-07-31T14:42:11;4.80;;;4.30;;
6485;SDS011;3276;48.490;9.222;2023-07-31T14:44:37;4.70;;;4.00;;
6485;SDS011;3276;48.490;9.222;2023-07-31T14:47:02;5.20;;;4.70;;
6485;SDS011;3276;48.490;9.222;2023-07-31T14:49:28;6.50;;;4.50;;
6485;SDS011;3276;48.490;9.222;2023-07-31T14:51:54;5.10;;;4.70;;
6485;SDS011;3276;48.490;9.222;2023-07-31T14:54:20;6.20;;;4.47;;
6485;SDS011;3276;48.490;9.222;2023-07-31T14:56:45;4.67;;;4.20;;
6485;SDS011;3276;48.490;9.222;2023-07-31T14:59:11;3.90;;;3.60;;
6485;SDS011;3276;48.490;9.222;2023-07-31T15:01:37;4.17;;;3.73;;
6485;SDS011;3276;48.490;9.222;2023-07-31T15:04:03;3.80;;;3.40;;
6485;SDS011;3276;48.490;9.222;2023-07-31T15:06:28;4.40;;;4.00;;
6485;SDS011;3276;48.490;9.222;2023-07-31T15:08:54;4.83;;;3.63;;
6485;SDS011;3276;48.490;9.222;2023-07-31T15:11:19;4.30;;;3.33;;
6485;SDS011;3276;48.490;9.222;2023-07-31T15:13:45;6.47;;;4.20;;
6485;SDS011;3276;48.490;9.222;2023-07-31T15:16:11;3.93;;;3.50;;
6485;SDS011;3276;48.490;9.222;2023-07-31T15:18:36;5.67;;;3.93;;
6485;SDS011;3276;48.490;9.222;2023-07-31T15:21:02;3.77;;;3.47;;
6485;SDS011;3276;48.490;9.222;2023-07-31T15:23:29;6.00;;;3.90;;
6485;SDS011;3276;48.490;9.222;2023-07-31T15:25:54;4.40;;;3.93;;
6485;SDS011;3276;48.490;9.222;2023-07-31T15:28:20;4.20;;;3.80;;
6485;SDS011;3276;48.490;9.222;2023-07-31T15:30:46;4.30;;;3.53;;
6485;SDS011;3276;48.490;9.222;2023-07-31T15:33:11;4.53;;;3.60;;